createdAt,value
2023-04-10T00:03:56.512Z,9.30
2023-04-10T00:09:22.280Z,9.05
2023-04-10T00:14:46.506Z,9.48
2023-04-10T00:20:12.797Z,8.77
2023-04-10T00:25:37.126Z,9.70
2023-04-10T00:31:01.457Z,9.35
2023-04-10T00:36:28.026Z,9.18
2023-04-10T00:41:52.708Z,9.63
2023-04-10T00:47:17.703Z,10.68
2023-04-10T00:52:42.661Z,9.80
2023-04-10T00:58:05.863Z,10.80
2023-04-10T01:03:28.988Z,11.55
2023-04-10T01:08:56.298Z,11.52
2023-04-10T01:14:24.376Z,12.07
2023-04-10T01:20:01.035Z,11.15
2023-04-10T01:25:39.661Z,10.20
2023-04-10T01:31:05.779Z,11.07
2023-04-10T01:36:34.262Z,10.68
2023-04-10T01:47:32.696Z,10.65
2023-04-10T01:52:55.112Z,10.77
2023-04-10T01:58:19.661Z,11.45
2023-04-10T02:09:13.612Z,12.05
2023-04-10T02:14:37.776Z,12.00
2023-04-10T02:20:04.671Z,12.27
2023-04-10T02:25:28.210Z,13.45
2023-04-10T02:30:51.551Z,13.18
2023-04-10T02:36:15.974Z,13.98
2023-04-10T02:41:39.360Z,12.18
2023-04-10T02:47:02.892Z,12.38
2023-04-10T02:52:29.951Z,13.52
2023-04-10T02:57:53.340Z,12.95
2023-04-10T03:03:16.629Z,13.93
2023-04-10T03:08:46.242Z,14.70
2023-04-10T03:14:10.195Z,14.50
2023-04-10T03:19:33.408Z,15.05
2023-04-10T03:24:57.721Z,15.50
2023-04-10T03:30:21.739Z,15.13
2023-04-10T03:35:44.416Z,15.18
2023-04-10T03:41:09.223Z,15.05
2023-04-10T03:46:32.772Z,14.45
2023-04-10T03:51:58.025Z,16.15
2023-04-10T03:57:22.493Z,15.95
2023-04-10T04:02:46.674Z,16.35
2023-04-10T04:08:15.646Z,18.00
2023-04-10T04:14:03.363Z,15.80
2023-04-10T04:19:52.489Z,16.65
2023-04-10T04:25:44.857Z,16.30
2023-04-10T04:31:32.703Z,14.75
2023-04-10T04:43:14.040Z,16.63
2023-04-10T04:49:04.240Z,14.73
2023-04-10T04:54:41.553Z,12.82
2023-04-10T05:00:24.665Z,12.10
2023-04-10T05:06:01.592Z,12.23
2023-04-10T05:11:44.576Z,12.30
2023-04-10T05:17:15.130Z,12.50
2023-04-10T05:22:44.028Z,11.93
2023-04-10T05:28:13.879Z,11.27
2023-04-10T05:33:54.022Z,10.90
2023-04-10T05:39:34.968Z,10.88
2023-04-10T05:45:19.993Z,10.52
2023-04-10T05:51:04.180Z,11.02
2023-04-10T05:56:35.088Z,10.30
2023-04-10T06:02:20.547Z,9.27
2023-04-10T06:07:46.514Z,8.63
2023-04-10T06:13:14.958Z,7.70
2023-04-10T06:18:39.213Z,8.35
2023-04-10T06:24:03.471Z,8.50
2023-04-10T06:29:29.159Z,8.20
2023-04-10T06:34:54.008Z,7.47
2023-04-10T06:40:18.914Z,7.60
2023-04-10T06:45:45.658Z,8.30
2023-04-10T06:51:09.254Z,8.52
2023-04-10T06:56:33.363Z,7.47
2023-04-10T07:01:58.395Z,5.60
2023-04-10T07:07:22.677Z,5.85
2023-04-10T07:12:46.518Z,4.40
2023-04-10T07:18:11.800Z,4.80
2023-04-10T07:23:36.504Z,5.60
2023-04-10T07:29:00.755Z,5.20
2023-04-10T07:34:27.109Z,4.18
2023-04-10T07:39:50.509Z,4.35
2023-04-10T07:45:15.307Z,4.28
2023-04-10T07:50:41.103Z,3.63
2023-04-10T07:56:06.009Z,5.15
2023-04-10T08:01:31.285Z,4.07
2023-04-10T08:06:56.901Z,3.55
2023-04-10T08:12:22.472Z,2.97
2023-04-10T08:17:46.757Z,4.50
2023-04-10T08:23:20.265Z,3.70
2023-04-10T08:28:47.251Z,3.13
2023-04-10T08:34:11.425Z,3.20
2023-04-10T08:39:37.900Z,3.28
2023-04-10T08:45:01.780Z,2.95
2023-04-10T08:50:25.520Z,3.05
2023-04-10T08:55:51.229Z,2.67
2023-04-10T09:01:16.080Z,3.33
2023-04-10T09:06:40.349Z,2.92
2023-04-10T09:12:06.860Z,3.42
2023-04-10T09:17:36.050Z,3.38
2023-04-10T09:23:02.412Z,3.03
2023-04-10T09:28:27.840Z,2.78
2023-04-10T09:34:07.742Z,3.40
2023-04-10T09:39:34.574Z,2.97
2023-04-10T09:45:01.457Z,2.80
2023-04-10T09:50:37.167Z,2.72
2023-04-10T09:56:05.317Z,2.95
2023-04-10T10:01:34.648Z,3.17
2023-04-10T10:06:58.517Z,3.15
2023-04-10T10:12:24.312Z,2.35
2023-04-10T10:17:57.371Z,2.40
2023-04-10T10:23:23.346Z,3.03
2023-04-10T10:28:47.970Z,3.13
2023-04-10T10:34:13.549Z,3.10
2023-04-10T10:39:43.897Z,3.58
2023-04-10T10:45:13.526Z,2.75
2023-04-10T10:50:56.271Z,3.17
2023-04-10T10:56:37.171Z,3.03
2023-04-10T11:02:17.358Z,2.22
2023-04-10T11:08:01.670Z,3.20
2023-04-10T11:13:26.942Z,3.25
2023-04-10T11:19:13.204Z,2.30
2023-04-10T11:24:52.744Z,1.90
2023-04-10T11:30:31.616Z,2.40
2023-04-10T11:35:56.744Z,3.03
2023-04-10T11:41:21.553Z,1.90
2023-04-10T11:46:47.875Z,2.92
2023-04-10T11:52:12.005Z,2.80
2023-04-10T11:57:36.523Z,1.95
2023-04-10T12:03:03.301Z,2.25
2023-04-10T12:08:31.960Z,2.45
2023-04-10T12:13:58.079Z,2.47
2023-04-10T12:19:24.810Z,2.78
2023-04-10T12:24:49.565Z,3.35
2023-04-10T12:30:14.258Z,2.55
2023-04-10T12:35:42.758Z,2.40
2023-04-10T12:41:07.396Z,2.70
2023-04-10T12:46:32.385Z,2.50
2023-04-10T12:51:57.860Z,2.83
2023-04-10T12:57:27.494Z,2.38
2023-04-10T13:08:16.461Z,2.45
2023-04-10T13:13:39.860Z,2.95
2023-04-10T13:19:05.535Z,3.10
2023-04-10T13:24:31.554Z,3.67
2023-04-10T13:29:56.772Z,3.03
2023-04-10T13:35:20.838Z,2.30
2023-04-10T13:40:47.093Z,2.10
2023-04-10T13:46:11.477Z,3.10
2023-04-10T13:51:35.309Z,2.28
2023-04-10T13:57:02.931Z,2.00
2023-04-10T14:02:27.970Z,2.55
2023-04-10T14:07:56.831Z,2.55
2023-04-10T14:13:22.527Z,2.40
2023-04-10T14:18:47.307Z,2.45
2023-04-10T14:24:11.343Z,2.45
2023-04-10T14:29:42.533Z,2.47
2023-04-10T14:35:11.336Z,3.13
2023-04-10T14:40:37.442Z,2.47
2023-04-10T14:46:05.725Z,3.28
2023-04-10T14:51:30.047Z,2.67
2023-04-10T14:56:54.573Z,2.60
2023-04-10T15:02:20.023Z,3.17
2023-04-10T15:07:44.663Z,2.95
2023-04-10T15:13:09.588Z,3.15
2023-04-10T15:18:35.066Z,3.03
2023-04-10T15:23:59.436Z,3.03
2023-04-10T15:29:25.739Z,3.38
2023-04-10T15:34:51.645Z,2.70
2023-04-10T15:40:15.626Z,3.42
2023-04-10T15:45:45.199Z,3.50
2023-04-10T15:51:10.677Z,2.88
2023-04-10T15:56:34.971Z,3.50
2023-04-10T16:02:00.646Z,4.30
2023-04-10T16:07:26.721Z,3.65
2023-04-10T16:12:50.921Z,3.65
2023-04-10T16:18:15.423Z,3.30
2023-04-10T16:23:42.272Z,3.58
2023-04-10T16:29:06.719Z,6.10
2023-04-10T16:34:32.291Z,6.63
2023-04-10T16:39:57.584Z,7.97
2023-04-10T16:45:21.928Z,7.93
2023-04-10T16:50:46.651Z,7.45
2023-04-10T16:56:12.253Z,5.75
2023-04-10T17:01:39.801Z,6.18
2023-04-10T17:07:04.431Z,9.03
2023-04-10T17:12:30.007Z,12.35
2023-04-10T17:17:56.972Z,12.10
2023-04-10T17:23:21.728Z,8.90
2023-04-10T17:28:46.832Z,9.20
2023-04-10T17:34:10.972Z,6.30
2023-04-10T17:39:34.939Z,6.45
2023-04-10T17:45:00.338Z,8.82
2023-04-10T17:50:24.459Z,9.90
2023-04-10T17:55:49.108Z,11.38
2023-04-10T18:01:21.515Z,12.05
2023-04-10T18:06:46.374Z,10.18
2023-04-10T18:12:10.773Z,9.13
2023-04-10T18:17:37.317Z,8.85
2023-04-10T18:23:04.681Z,7.97
2023-04-10T18:28:29.396Z,9.93
2023-04-10T18:34:06.635Z,9.48
2023-04-10T18:39:31.862Z,9.82
2023-04-10T18:44:56.258Z,9.82
2023-04-10T18:50:21.221Z,10.48
2023-04-10T18:55:49.348Z,9.30
2023-04-10T19:01:12.821Z,6.45
2023-04-10T19:06:41.032Z,6.22
2023-04-10T19:12:05.194Z,7.78
2023-04-10T19:17:31.102Z,6.45
2023-04-10T19:22:56.760Z,8.35
2023-04-10T19:28:22.898Z,8.38
2023-04-10T19:33:46.978Z,7.05
2023-04-10T19:39:14.005Z,8.25
2023-04-10T19:44:38.227Z,10.48
2023-04-10T19:50:02.747Z,11.85
2023-04-10T19:55:29.132Z,11.75
2023-04-10T20:00:55.538Z,11.85
2023-04-10T20:06:21.539Z,12.00
2023-04-10T20:11:47.365Z,12.65
2023-04-10T20:17:11.941Z,13.32
2023-04-10T20:22:36.532Z,13.20
2023-04-10T20:28:02.031Z,11.05
2023-04-10T20:33:26.588Z,11.13
2023-04-10T20:38:50.946Z,12.25
2023-04-10T20:44:16.800Z,13.45
2023-04-10T20:49:41.124Z,11.75
2023-04-10T20:55:04.635Z,12.18
2023-04-10T21:00:30.910Z,11.93
2023-04-10T21:05:54.870Z,10.38
2023-04-10T21:11:22.133Z,12.00
2023-04-10T21:16:48.415Z,10.35
2023-04-10T21:22:12.549Z,9.38
2023-04-10T21:27:36.657Z,8.18
2023-04-10T21:33:03.133Z,7.30
2023-04-10T21:38:27.363Z,6.75
2023-04-10T21:43:51.518Z,5.63
2023-04-10T21:49:16.965Z,5.97
2023-04-10T21:54:41.357Z,6.20
2023-04-10T22:00:08.546Z,6.35
2023-04-10T22:05:34.110Z,6.70
2023-04-10T22:10:59.181Z,6.88
2023-04-10T22:16:23.185Z,5.32
2023-04-10T22:21:48.473Z,5.35
2023-04-10T22:27:13.817Z,4.90
2023-04-10T22:32:38.122Z,4.50
2023-04-10T22:38:04.605Z,5.55
2023-04-10T22:43:29.527Z,6.00
2023-04-10T22:48:54.455Z,5.28
2023-04-10T22:54:20.004Z,4.25
2023-04-10T22:59:44.319Z,4.70
2023-04-10T23:05:08.732Z,4.82
2023-04-10T23:10:34.805Z,4.22
2023-04-10T23:16:02.729Z,5.15
2023-04-10T23:21:27.471Z,4.50
2023-04-10T23:26:53.103Z,4.88
2023-04-10T23:32:21.415Z,5.85
2023-04-10T23:37:45.756Z,6.05
2023-04-10T23:43:11.376Z,7.45
2023-04-10T23:48:37.741Z,7.60
2023-04-10T23:54:02.106Z,6.25
2023-04-10T23:59:27.903Z,6.57
